createdAt,value
2022-09-23T00:02:22.239Z,13.33
2022-09-23T00:04:48.527Z,13.24
2022-09-23T00:07:14.871Z,13.18
2022-09-23T00:09:41.235Z,13.14
2022-09-23T00:12:09.222Z,13.12
2022-09-23T00:14:33.893Z,13.06
2022-09-23T00:17:00.371Z,13.05
2022-09-23T00:19:26.558Z,13.02
2022-09-23T00:21:52.873Z,12.98
2022-09-23T00:24:19.243Z,12.97
2022-09-23T00:26:45.583Z,12.97
2022-09-23T00:29:11.915Z,12.94
2022-09-23T00:31:38.273Z,12.90
2022-09-23T00:34:04.589Z,12.86
2022-09-23T00:36:30.930Z,12.72
2022-09-23T00:38:57.273Z,12.72
2022-09-23T00:41:23.595Z,12.66
2022-09-23T00:43:49.968Z,12.59
2022-09-23T00:46:16.357Z,12.54
2022-09-23T00:48:42.628Z,12.52
2022-09-23T00:51:08.945Z,12.48
2022-09-23T00:53:35.269Z,12.41
2022-09-23T00:56:01.607Z,12.35
2022-09-23T00:58:27.944Z,12.23
2022-09-23T01:00:54.331Z,12.14
2022-09-23T01:03:20.594Z,12.05
2022-09-23T01:05:46.908Z,11.98
2022-09-23T01:08:13.249Z,11.94
2022-09-23T01:10:39.568Z,11.95
2022-09-23T01:13:05.907Z,11.94
2022-09-23T01:15:32.238Z,11.93
2022-09-23T01:17:58.558Z,11.89
2022-09-23T01:20:24.874Z,11.86
2022-09-23T01:22:51.221Z,11.84
2022-09-23T01:25:17.553Z,11.89
2022-09-23T01:27:43.873Z,11.98
2022-09-23T01:30:10.223Z,12.07
2022-09-23T01:32:36.559Z,12.11
2022-09-23T01:35:02.886Z,12.09
2022-09-23T01:37:29.197Z,11.99
2022-09-23T01:39:55.534Z,11.92
2022-09-23T01:42:21.854Z,11.86
2022-09-23T01:44:48.226Z,11.78
2022-09-23T01:47:14.560Z,11.74
2022-09-23T01:49:40.873Z,11.73
2022-09-23T01:52:07.239Z,11.75
2022-09-23T01:54:33.572Z,11.76
2022-09-23T01:56:59.890Z,11.76
2022-09-23T01:59:26.233Z,11.67
2022-09-23T02:01:52.611Z,11.65
2022-09-23T02:04:18.922Z,11.61
2022-09-23T02:06:45.249Z,11.55
2022-09-23T02:09:11.565Z,11.53
2022-09-23T02:11:37.906Z,11.55
2022-09-23T02:14:04.236Z,11.58
2022-09-23T02:16:30.629Z,11.63
2022-09-23T02:18:56.891Z,11.67
2022-09-23T02:21:23.213Z,11.70
2022-09-23T02:23:49.582Z,11.70
2022-09-23T02:26:15.898Z,11.70
2022-09-23T02:28:42.236Z,11.69
2022-09-23T02:31:08.587Z,11.67
2022-09-23T02:33:34.922Z,11.65
2022-09-23T02:36:01.259Z,11.63
2022-09-23T02:38:27.595Z,11.63
2022-09-23T02:40:53.998Z,11.55
2022-09-23T02:43:20.252Z,11.53
2022-09-23T02:45:46.595Z,11.55
2022-09-23T02:48:12.904Z,11.53
2022-09-23T02:50:39.241Z,11.50
2022-09-23T02:53:05.553Z,11.48
2022-09-23T02:55:31.896Z,11.40
2022-09-23T02:57:58.227Z,11.35
2022-09-23T03:00:24.598Z,11.34
2022-09-23T03:02:50.910Z,11.30
2022-09-23T03:05:17.231Z,11.27
2022-09-23T03:07:43.592Z,11.24
2022-09-23T03:10:09.934Z,11.23
2022-09-23T03:12:36.268Z,11.23
2022-09-23T03:15:02.591Z,11.18
2022-09-23T03:17:28.921Z,11.11
2022-09-23T03:19:55.262Z,11.03
2022-09-23T03:22:21.620Z,10.97
2022-09-23T03:24:51.850Z,11.01
2022-09-23T03:27:14.274Z,10.97
2022-09-23T03:29:40.633Z,10.98
2022-09-23T03:32:06.983Z,10.98
2022-09-23T03:34:33.265Z,10.97
2022-09-23T03:36:59.645Z,10.94
2022-09-23T03:39:25.963Z,10.92
2022-09-23T03:41:52.298Z,10.90
2022-09-23T03:44:18.666Z,10.86
2022-09-23T03:46:44.976Z,10.84
2022-09-23T03:49:11.320Z,10.82
2022-09-23T03:51:41.494Z,10.79
2022-09-23T03:54:03.998Z,10.79
2022-09-23T03:56:30.333Z,10.76
2022-09-23T03:58:56.673Z,10.72
2022-09-23T04:01:23.043Z,10.73
2022-09-23T04:03:49.344Z,10.69
2022-09-23T04:06:15.718Z,10.67
2022-09-23T04:08:42.056Z,10.67
2022-09-23T04:11:08.366Z,10.63
2022-09-23T04:13:34.711Z,10.61
2022-09-23T04:16:01.072Z,10.57
2022-09-23T04:18:27.368Z,10.54
2022-09-23T04:20:53.706Z,10.54
2022-09-23T04:23:20.061Z,10.55
2022-09-23T04:25:46.420Z,10.54
2022-09-23T04:28:12.759Z,10.52
2022-09-23T04:30:39.112Z,10.51
2022-09-23T04:33:05.425Z,10.52
2022-09-23T04:35:31.746Z,10.51
2022-09-23T04:37:58.102Z,10.49
2022-09-23T04:40:24.462Z,10.43
2022-09-23T04:42:50.762Z,10.39
2022-09-23T04:45:17.075Z,10.39
2022-09-23T04:47:43.416Z,10.40
2022-09-23T04:50:09.752Z,10.38
2022-09-23T04:52:36.103Z,10.42
2022-09-23T04:55:02.436Z,10.45
2022-09-23T04:57:28.755Z,10.47
2022-09-23T04:59:55.070Z,10.49
2022-09-23T05:02:21.455Z,10.47
2022-09-23T05:04:47.710Z,10.46
2022-09-23T05:07:14.086Z,10.49
2022-09-23T05:09:40.404Z,10.53
2022-09-23T05:12:06.741Z,10.54
2022-09-23T05:14:33.058Z,10.60
2022-09-23T05:16:59.378Z,10.65
2022-09-23T05:19:25.719Z,10.70
2022-09-23T05:21:52.061Z,10.76
2022-09-23T05:24:18.376Z,10.81
2022-09-23T05:26:44.764Z,10.88
2022-09-23T05:29:11.073Z,10.94
2022-09-23T05:31:37.432Z,10.99
2022-09-23T05:34:03.751Z,11.04
2022-09-23T05:36:34.328Z,11.09
2022-09-23T05:38:56.425Z,11.14
2022-09-23T05:41:22.746Z,11.17
2022-09-23T05:43:49.072Z,11.21
2022-09-23T05:46:15.478Z,11.27
2022-09-23T05:48:41.758Z,11.31
2022-09-23T05:51:08.072Z,11.33
2022-09-23T05:53:34.394Z,11.36
2022-09-23T05:56:00.773Z,11.42
2022-09-23T05:58:27.092Z,11.49
2022-09-23T06:00:53.414Z,11.55
2022-09-23T06:03:19.835Z,11.59
2022-09-23T06:05:46.104Z,11.64
2022-09-23T06:08:12.503Z,11.72
2022-09-23T06:10:38.831Z,11.80
2022-09-23T06:13:05.175Z,11.88
2022-09-23T06:15:31.491Z,12.02
2022-09-23T06:17:57.843Z,12.16
2022-09-23T06:20:24.186Z,12.36
2022-09-23T06:22:54.241Z,12.51
2022-09-23T06:25:16.826Z,12.63
2022-09-23T06:27:43.175Z,12.72
2022-09-23T06:30:09.488Z,12.83
2022-09-23T06:32:35.834Z,12.95
2022-09-23T06:35:02.170Z,13.10
2022-09-23T06:37:28.513Z,13.21
2022-09-23T06:39:54.830Z,13.27
2022-09-23T06:42:21.192Z,13.33
2022-09-23T06:44:47.505Z,13.35
2022-09-23T06:47:13.847Z,13.41
2022-09-23T06:49:40.191Z,13.42
2022-09-23T06:52:06.550Z,13.45
2022-09-23T06:54:32.892Z,13.53
2022-09-23T06:56:59.232Z,13.63
2022-09-23T06:59:25.550Z,13.91
2022-09-23T07:01:51.975Z,14.40
2022-09-23T07:04:18.236Z,15.00
2022-09-23T07:06:44.593Z,15.43
2022-09-23T07:09:10.909Z,15.81
2022-09-23T07:11:37.262Z,16.20
2022-09-23T07:14:03.600Z,16.52
2022-09-23T07:16:30.025Z,16.96
2022-09-23T07:18:56.301Z,17.17
2022-09-23T07:21:22.624Z,17.49
2022-09-23T07:23:48.952Z,17.84
2022-09-23T07:26:15.297Z,18.11
2022-09-23T07:28:41.615Z,18.37
2022-09-23T07:31:08.009Z,18.70
2022-09-23T07:33:34.291Z,19.04
2022-09-23T07:36:00.599Z,19.17
2022-09-23T07:38:26.969Z,19.25
2022-09-23T07:40:53.344Z,19.15
2022-09-23T07:43:19.607Z,18.85
2022-09-23T07:45:45.949Z,18.70
2022-09-23T07:48:12.268Z,18.99
2022-09-23T07:50:38.613Z,19.36
2022-09-23T07:53:04.951Z,19.52
2022-09-23T07:55:31.271Z,19.66
2022-09-23T07:57:57.641Z,19.61
2022-09-23T08:00:23.982Z,19.67
2022-09-23T08:02:52.955Z,19.69
2022-09-23T08:05:16.626Z,19.66
2022-09-23T08:07:42.944Z,19.82
2022-09-23T08:10:09.286Z,19.97
2022-09-23T08:12:35.659Z,20.31
2022-09-23T08:15:02.005Z,20.67
2022-09-23T08:17:28.343Z,21.04
2022-09-23T08:19:54.741Z,21.08
2022-09-23T08:22:21.049Z,20.84
2022-09-23T08:24:47.395Z,20.67
2022-09-23T08:27:13.773Z,20.83
2022-09-23T08:29:40.114Z,21.18
2022-09-23T08:32:06.447Z,21.63
2022-09-23T08:34:32.836Z,22.04
2022-09-23T08:36:59.161Z,22.36
2022-09-23T08:39:25.477Z,22.70
2022-09-23T08:41:56.101Z,22.89
2022-09-23T08:44:18.127Z,22.94
2022-09-23T08:46:44.470Z,23.05
2022-09-23T08:49:10.794Z,23.29
2022-09-23T08:51:37.190Z,23.55
2022-09-23T08:54:03.539Z,23.87
2022-09-23T08:56:29.885Z,23.96
2022-09-23T08:58:56.277Z,23.87
2022-09-23T09:01:22.682Z,23.99
2022-09-23T09:03:48.934Z,24.24
2022-09-23T09:06:15.279Z,24.52
2022-09-23T09:08:41.618Z,24.83
2022-09-23T09:11:08.969Z,25.06
2022-09-23T09:13:35.308Z,25.25
2022-09-23T09:16:01.646Z,25.39
2022-09-23T09:18:27.947Z,25.56
2022-09-23T09:20:54.272Z,25.51
2022-09-23T09:23:20.618Z,25.46
2022-09-23T09:25:46.933Z,25.44
2022-09-23T09:28:13.300Z,25.61
2022-09-23T09:30:39.701Z,25.83
2022-09-23T09:33:05.957Z,26.02
2022-09-23T09:35:32.308Z,26.26
2022-09-23T09:37:58.650Z,26.42
2022-09-23T09:40:25.047Z,26.63
2022-09-23T09:42:51.369Z,26.77
2022-09-23T09:45:19.723Z,26.91
2022-09-23T09:47:44.019Z,27.13
2022-09-23T09:50:10.393Z,27.31
2022-09-23T09:52:42.695Z,27.39
2022-09-23T09:55:09.007Z,27.40
2022-09-23T09:57:36.180Z,27.51
2022-09-23T10:00:01.672Z,27.64
2022-09-23T10:02:27.989Z,27.80
2022-09-23T10:04:54.326Z,27.95
2022-09-23T10:07:20.656Z,28.12
2022-09-23T10:09:46.970Z,28.24
2022-09-23T10:12:13.346Z,28.22
2022-09-23T10:14:39.682Z,28.15
2022-09-23T10:17:06.085Z,28.17
2022-09-23T10:19:32.389Z,28.26
2022-09-23T10:21:58.737Z,28.39
2022-09-23T10:24:25.050Z,28.40
2022-09-23T10:26:51.412Z,28.43
2022-09-23T10:29:17.732Z,28.53
2022-09-23T10:31:44.079Z,28.48
2022-09-23T10:34:10.451Z,28.54
2022-09-23T10:36:40.071Z,28.65
2022-09-23T10:39:03.171Z,28.61
2022-09-23T10:41:29.467Z,28.52
2022-09-23T10:43:55.781Z,28.32
2022-09-23T10:46:22.291Z,28.24
2022-09-23T10:48:48.505Z,28.35
2022-09-23T10:51:14.846Z,28.45
2022-09-23T10:53:41.194Z,28.51
2022-09-23T10:56:07.541Z,28.63
2022-09-23T10:58:33.883Z,28.72
2022-09-23T11:01:00.291Z,28.82
2022-09-23T11:03:26.535Z,28.78
2022-09-23T11:05:52.854Z,28.76
2022-09-23T11:08:19.208Z,28.85
2022-09-23T11:10:46.608Z,28.97
2022-09-23T11:13:11.852Z,29.02
2022-09-23T11:15:38.176Z,29.02
2022-09-23T11:18:04.498Z,28.98
2022-09-23T11:20:30.851Z,28.78
2022-09-23T11:22:57.168Z,28.74
2022-09-23T11:25:23.521Z,28.70
2022-09-23T11:27:49.891Z,28.77
2022-09-23T11:30:16.236Z,28.82
2022-09-23T11:32:42.551Z,28.82
2022-09-23T11:35:08.918Z,28.83
2022-09-23T11:37:35.213Z,28.80
2022-09-23T11:40:01.538Z,28.87
2022-09-23T11:42:27.859Z,28.93
2022-09-23T11:44:54.207Z,28.90
2022-09-23T11:47:20.540Z,28.76
2022-09-23T11:49:46.884Z,28.77
2022-09-23T11:52:13.220Z,28.80
2022-09-23T11:54:39.558Z,28.72
2022-09-23T11:57:05.877Z,28.51
2022-09-23T11:59:39.460Z,28.16
2022-09-23T12:02:01.812Z,27.69
2022-09-23T12:04:25.269Z,27.27
2022-09-23T12:06:51.196Z,26.86
2022-09-23T12:09:17.539Z,26.73
2022-09-23T12:11:43.887Z,26.65
2022-09-23T12:14:10.297Z,26.43
2022-09-23T12:16:36.634Z,26.11
2022-09-23T12:19:02.903Z,25.80
2022-09-23T12:21:49.166Z,25.46
2022-09-23T12:23:55.596Z,25.15
2022-09-23T12:26:21.924Z,24.91
2022-09-23T12:28:48.267Z,24.78
2022-09-23T12:31:14.703Z,24.71
2022-09-23T12:33:40.980Z,24.63
2022-09-23T12:36:07.292Z,24.58
2022-09-23T12:38:33.634Z,24.43
2022-09-23T12:40:59.958Z,24.30
2022-09-23T12:43:26.282Z,24.13
2022-09-23T12:45:52.666Z,24.18
2022-09-23T12:48:18.959Z,24.19
2022-09-23T12:50:45.283Z,24.08
2022-09-23T12:53:11.606Z,24.04
2022-09-23T12:55:37.950Z,24.07
2022-09-23T12:58:04.303Z,24.04
2022-09-23T13:00:34.243Z,23.90
2022-09-23T13:02:56.982Z,23.88
2022-09-23T13:05:23.358Z,23.98
2022-09-23T13:07:49.680Z,23.98
2022-09-23T13:10:16.001Z,23.95
2022-09-23T13:12:42.346Z,23.98
2022-09-23T13:15:08.682Z,24.01
2022-09-23T13:17:35.021Z,24.00
2022-09-23T13:20:01.364Z,23.91
2022-09-23T13:22:27.705Z,23.80
2022-09-23T13:24:54.048Z,23.69
2022-09-23T13:27:20.420Z,23.58
2022-09-23T13:29:46.738Z,23.49
2022-09-23T13:32:13.082Z,23.37
2022-09-23T13:34:39.396Z,23.25
2022-09-23T13:37:05.740Z,23.16
2022-09-23T13:39:32.077Z,23.09
2022-09-23T13:41:58.446Z,23.00
2022-09-23T13:44:24.760Z,22.92
2022-09-23T13:46:51.117Z,22.80
2022-09-23T13:49:17.485Z,22.73
2022-09-23T13:51:43.830Z,22.66
2022-09-23T13:54:10.207Z,22.56
2022-09-23T13:56:36.495Z,22.47
2022-09-23T13:59:02.834Z,22.40
2022-09-23T14:01:29.238Z,22.33
2022-09-23T14:03:55.532Z,22.25
2022-09-23T14:06:21.851Z,22.15
2022-09-23T14:08:48.172Z,22.06
2022-09-23T14:11:14.561Z,21.97
2022-09-23T14:13:40.897Z,21.87
2022-09-23T14:16:07.239Z,21.76
2022-09-23T14:18:33.566Z,21.69
2022-09-23T14:20:59.908Z,21.62
2022-09-23T14:23:26.246Z,21.53
2022-09-23T14:25:52.587Z,21.45
2022-09-23T14:28:18.929Z,21.41
2022-09-23T14:30:45.246Z,21.37
2022-09-23T14:33:11.587Z,21.29
2022-09-23T14:35:37.930Z,21.23
2022-09-23T14:38:04.243Z,21.15
2022-09-23T14:40:30.723Z,21.05
2022-09-23T14:42:56.973Z,20.99
2022-09-23T14:45:23.344Z,20.92
2022-09-23T14:47:49.650Z,20.87
2022-09-23T14:50:15.990Z,20.83
2022-09-23T14:52:42.304Z,20.79
2022-09-23T14:55:08.645Z,20.74
2022-09-23T14:57:34.982Z,20.67
2022-09-23T15:00:01.323Z,20.61
2022-09-23T15:02:27.678Z,20.53
2022-09-23T15:04:55.177Z,20.46
2022-09-23T15:07:20.346Z,20.39
2022-09-23T15:09:46.703Z,20.33
2022-09-23T15:12:13.044Z,20.26
2022-09-23T15:14:40.851Z,20.20
2022-09-23T15:17:05.702Z,20.13
2022-09-23T15:19:32.027Z,20.05
2022-09-23T15:21:58.366Z,20.00
2022-09-23T15:24:24.706Z,19.93
2022-09-23T15:26:51.028Z,19.90
2022-09-23T15:29:17.373Z,19.91
2022-09-23T15:31:43.788Z,19.89
2022-09-23T15:34:10.102Z,19.84
2022-09-23T15:36:36.387Z,19.82
2022-09-23T15:39:02.728Z,19.81
2022-09-23T15:41:29.043Z,19.79
2022-09-23T15:43:55.388Z,19.76
2022-09-23T15:46:21.781Z,19.71
2022-09-23T15:48:48.079Z,19.68
2022-09-23T15:51:14.412Z,19.65
2022-09-23T15:53:40.792Z,19.60
2022-09-23T15:56:07.107Z,19.55
2022-09-23T15:58:33.467Z,19.47
2022-09-23T16:00:59.895Z,19.42
2022-09-23T16:03:26.134Z,19.37
2022-09-23T16:05:52.448Z,19.32
2022-09-23T16:08:18.823Z,19.27
2022-09-23T16:10:45.136Z,19.20
2022-09-23T16:13:11.460Z,19.12
2022-09-23T16:15:37.786Z,19.05
2022-09-23T16:18:04.122Z,18.99
2022-09-23T16:20:30.439Z,18.93
2022-09-23T16:22:56.791Z,18.86
2022-09-23T16:25:23.138Z,18.80
2022-09-23T16:27:49.475Z,18.73
2022-09-23T16:30:15.876Z,18.65
2022-09-23T16:32:42.198Z,18.58
2022-09-23T16:35:08.560Z,18.50
2022-09-23T16:37:35.172Z,18.44
2022-09-23T16:40:01.214Z,18.36
2022-09-23T16:42:27.578Z,18.31
2022-09-23T16:44:53.891Z,18.23
2022-09-23T16:47:20.250Z,18.20
2022-09-23T16:49:46.604Z,18.17
2022-09-23T16:52:12.916Z,18.10
2022-09-23T16:54:39.291Z,18.03
2022-09-23T16:57:05.629Z,17.99
2022-09-23T16:59:31.968Z,17.94
2022-09-23T17:01:58.415Z,17.90
2022-09-23T17:04:24.701Z,17.85
2022-09-23T17:06:51.038Z,17.83
2022-09-23T17:09:17.416Z,17.84
2022-09-23T17:11:43.750Z,17.80
2022-09-23T17:14:10.070Z,17.78
2022-09-23T17:16:36.457Z,17.69
2022-09-23T17:19:02.809Z,17.59
2022-09-23T17:21:29.109Z,17.51
2022-09-23T17:23:55.489Z,17.42
2022-09-23T17:26:21.817Z,17.36
2022-09-23T17:28:48.157Z,17.32
2022-09-23T17:31:14.547Z,17.28
2022-09-23T17:33:40.846Z,17.23
2022-09-23T17:36:07.181Z,17.19
2022-09-23T17:38:33.541Z,17.16
2022-09-23T17:41:00.119Z,17.11
2022-09-23T17:43:26.217Z,17.09
2022-09-23T17:45:52.592Z,17.10
2022-09-23T17:48:18.909Z,17.05
2022-09-23T17:50:45.246Z,17.00
2022-09-23T17:53:11.598Z,17.00
2022-09-23T17:55:37.937Z,16.96
2022-09-23T17:58:04.280Z,16.92
2022-09-23T18:00:30.726Z,16.90
2022-09-23T18:02:56.949Z,16.90
2022-09-23T18:05:23.287Z,16.88
2022-09-23T18:07:49.609Z,16.84
2022-09-23T18:10:15.932Z,16.79
2022-09-23T18:12:42.274Z,16.73
2022-09-23T18:15:08.594Z,16.71
2022-09-23T18:17:34.972Z,16.68
2022-09-23T18:20:01.280Z,16.65
2022-09-23T18:22:27.632Z,16.62
2022-09-23T18:24:53.966Z,16.57
2022-09-23T18:27:20.310Z,16.53
2022-09-23T18:29:46.627Z,16.49
2022-09-23T18:32:14.311Z,16.49
2022-09-23T18:34:39.294Z,16.43
2022-09-23T18:37:15.007Z,16.39
2022-09-23T18:39:31.969Z,16.34
2022-09-23T18:41:58.291Z,16.33
2022-09-23T18:44:24.630Z,16.31
2022-09-23T18:46:50.958Z,16.29
2022-09-23T18:49:17.278Z,16.26
2022-09-23T18:51:43.602Z,16.23
2022-09-23T18:54:09.977Z,16.21
2022-09-23T18:56:36.270Z,16.18
2022-09-23T18:59:02.582Z,16.13
2022-09-23T19:01:29.028Z,16.08
2022-09-23T19:03:55.292Z,16.04
2022-09-23T19:06:21.626Z,15.99
2022-09-23T19:08:47.953Z,15.94
2022-09-23T19:11:14.277Z,15.88
2022-09-23T19:13:40.615Z,15.82
2022-09-23T19:16:06.977Z,15.78
2022-09-23T19:18:33.289Z,15.76
2022-09-23T19:21:01.556Z,15.73
2022-09-23T19:23:26.153Z,15.69
2022-09-23T19:25:52.498Z,15.61
2022-09-23T19:28:18.836Z,15.56
2022-09-23T19:30:45.192Z,15.57
2022-09-23T19:33:11.511Z,15.57
2022-09-23T19:35:37.834Z,15.54
2022-09-23T19:38:04.174Z,15.48
2022-09-23T19:40:30.564Z,15.43
2022-09-23T19:42:56.852Z,15.35
2022-09-23T19:45:23.204Z,15.28
2022-09-23T19:47:49.543Z,15.25
2022-09-23T19:50:15.887Z,15.28
2022-09-23T19:52:42.222Z,15.29
2022-09-23T19:55:08.571Z,15.31
2022-09-23T19:57:34.908Z,15.29
2022-09-23T20:00:01.248Z,15.22
2022-09-23T20:02:27.640Z,15.21
2022-09-23T20:04:53.924Z,15.14
2022-09-23T20:07:20.262Z,15.07
2022-09-23T20:09:46.612Z,15.10
2022-09-23T20:12:12.953Z,15.09
2022-09-23T20:14:39.273Z,15.07
2022-09-23T20:17:05.617Z,15.08
2022-09-23T20:19:31.937Z,15.04
2022-09-23T20:21:58.275Z,14.97
2022-09-23T20:24:24.598Z,14.89
2022-09-23T20:26:50.923Z,14.85
2022-09-23T20:29:17.260Z,14.80
2022-09-23T20:31:43.664Z,14.72
2022-09-23T20:34:09.987Z,14.65
2022-09-23T20:36:36.337Z,14.61
2022-09-23T20:39:02.633Z,14.56
2022-09-23T20:41:28.968Z,14.51
2022-09-23T20:43:55.315Z,14.47
2022-09-23T20:46:21.730Z,14.38
2022-09-23T20:48:48.036Z,14.26
2022-09-23T20:51:14.345Z,14.19
2022-09-23T20:53:40.731Z,14.18
2022-09-23T20:56:07.072Z,14.18
2022-09-23T20:58:33.394Z,14.19
2022-09-23T21:00:59.938Z,14.13
2022-09-23T21:03:26.117Z,14.01
2022-09-23T21:05:52.455Z,13.90
2022-09-23T21:08:18.801Z,13.81
2022-09-23T21:10:45.136Z,13.78
2022-09-23T21:13:11.460Z,13.74
2022-09-23T21:15:37.778Z,13.70
2022-09-23T21:18:04.123Z,13.66
2022-09-23T21:20:30.443Z,13.62
2022-09-23T21:22:56.765Z,13.57
2022-09-23T21:25:28.145Z,13.58
2022-09-23T21:27:49.407Z,13.52
2022-09-23T21:30:15.776Z,13.47
2022-09-23T21:32:42.114Z,13.47
2022-09-23T21:35:08.448Z,13.40
2022-09-23T21:37:34.805Z,13.35
2022-09-23T21:40:01.144Z,13.33
2022-09-23T21:42:27.462Z,13.33
2022-09-23T21:44:53.803Z,13.25
2022-09-23T21:47:20.173Z,13.23
2022-09-23T21:49:50.627Z,13.19
2022-09-23T21:52:12.812Z,13.15
2022-09-23T21:54:39.131Z,13.12
2022-09-23T21:57:05.473Z,13.13
2022-09-23T21:59:31.792Z,13.15
2022-09-23T22:01:58.117Z,13.13
2022-09-23T22:04:24.601Z,13.05
2022-09-23T22:06:50.798Z,12.98
2022-09-23T22:09:17.118Z,12.92
2022-09-23T22:11:43.459Z,12.88
2022-09-23T22:14:09.802Z,12.87
2022-09-23T22:16:36.170Z,12.87
2022-09-23T22:19:02.473Z,12.81
2022-09-23T22:21:28.821Z,12.80
2022-09-23T22:23:55.158Z,12.80
2022-09-23T22:26:21.481Z,12.81
2022-09-23T22:28:47.862Z,12.78
2022-09-23T22:31:14.233Z,12.72
2022-09-23T22:33:40.503Z,12.70
2022-09-23T22:36:06.896Z,12.70
2022-09-23T22:38:33.238Z,12.68
2022-09-23T22:40:59.619Z,12.63
2022-09-23T22:43:25.938Z,12.59
2022-09-23T22:45:52.283Z,12.53
2022-09-23T22:48:18.598Z,12.48
2022-09-23T22:50:44.970Z,12.43
2022-09-23T22:53:11.303Z,12.39
2022-09-23T22:55:37.623Z,12.34
2022-09-23T22:58:27.628Z,12.34
2022-09-23T23:00:30.268Z,12.38
2022-09-23T23:02:56.640Z,12.46
2022-09-23T23:05:22.978Z,12.46
2022-09-23T23:07:49.288Z,12.42
2022-09-23T23:10:15.614Z,12.39
2022-09-23T23:12:41.955Z,12.33
2022-09-23T23:15:08.294Z,12.26
2022-09-23T23:17:34.605Z,12.26
2022-09-23T23:20:00.944Z,12.20
2022-09-23T23:22:27.254Z,12.12
2022-09-23T23:24:53.608Z,12.09
2022-09-23T23:27:19.946Z,12.07
2022-09-23T23:29:46.278Z,12.04
2022-09-23T23:32:12.613Z,11.99
2022-09-23T23:34:38.933Z,11.96
2022-09-23T23:37:05.277Z,11.91
2022-09-23T23:39:31.598Z,11.89
2022-09-23T23:41:57.918Z,11.87
2022-09-23T23:44:24.271Z,11.87
2022-09-23T23:46:50.744Z,11.87
2022-09-23T23:49:16.945Z,11.86
2022-09-23T23:51:43.292Z,11.84
2022-09-23T23:54:09.630Z,11.84
2022-09-23T23:56:35.943Z,11.84
2022-09-23T23:59:02.320Z,11.81
